Time;durP1;ratioP1;P1;durP2;ratioP2;P2;SDS_P1;SDS_P2;PMS_P1;PMS_P2;Temp;Humidity;BMP_temperature;BMP_pressure;BME280_temperature;BME280_humidity;BME280_pressure;Samples;Min_cycle;Max_cycle;Signal;HPM_P1;HPM_P2
2023/08/08 00:01:42;;;;;;;2.10;1.90;;;;;;;15.67;nan;99728.66;4992535;28;20911;-73
2023/08/08 00:04:11;;;;;;;2.33;1.70;;;;;;;15.59;nan;99718.69;4992226;28;20358;-73
2023/08/08 00:06:37;;;;;;;2.97;2.03;;;;;;;15.51;nan;99726.41;4990275;28;20529;-73
2023/08/08 00:09:06;;;;;;;2.88;1.60;;;;;;;15.44;nan;99720.78;4991980;28;20244;-73
2023/08/08 00:11:32;;;;;;;2.00;1.80;;;;;;;15.41;nan;99725.50;4989481;28;20345;-72
2023/08/08 00:13:57;;;;;;;2.60;1.80;;;;;;;15.42;nan;99722.72;4991670;28;20274;-73
2023/08/08 00:16:23;;;;;;;7.40;4.00;;;;;;;15.43;nan;99721.75;4992103;28;20462;-73
2023/08/08 00:18:53;;;;;;;1.73;1.63;;;;;;;15.45;nan;99726.94;4991687;28;20288;-73
2023/08/08 00:21:20;;;;;;;3.75;1.85;;;;;;;15.46;nan;99723.31;4991772;28;20307;-73
2023/08/08 00:23:45;;;;;;;3.45;1.85;;;;;;;15.46;nan;99728.59;4991532;28;20242;-73
2023/08/08 00:26:11;;;;;;;2.83;1.83;;;;;;;15.41;nan;99717.53;4988897;28;21217;-73
2023/08/08 00:28:37;;;;;;;1.90;1.80;;;;;;;15.36;nan;99720.56;4991720;28;20267;-73
2023/08/08 00:31:02;;;;;;;1.93;1.40;;;;;;;15.32;nan;99720.97;4990791;28;20236;-73
2023/08/08 00:33:28;;;;;;;2.50;1.77;;;;;;;15.18;nan;99717.63;4986815;28;20523;-73
2023/08/08 00:35:53;;;;;;;2.67;1.98;;;;;;;15.06;nan;99721.25;4989736;28;20439;-73
2023/08/08 00:38:19;;;;;;;1.70;1.60;;;;;;;15.01;nan;99720.78;4991606;28;20210;-74
2023/08/08 00:40:44;;;;;;;2.50;1.70;;;;;;;15.03;nan;99717.03;4987603;28;20218;-73
2023/08/08 00:43:10;;;;;;;2.53;1.80;;;;;;;15.04;nan;99704.66;4991443;28;20213;-73
2023/08/08 00:45:36;;;;;;;4.97;1.67;;;;;;;15.00;nan;99708.53;4971733;28;20265;-73
2023/08/08 00:48:02;;;;;;;4.10;2.03;;;;;;;14.99;nan;99712.97;4991738;28;20314;-73
2023/08/08 00:50:27;;;;;;;2.67;1.67;;;;;;;15.00;nan;99704.06;4988279;28;21070;-73
2023/08/08 00:52:53;;;;;;;1.90;1.40;;;;;;;14.97;nan;99700.84;4991655;28;21276;-73
2023/08/08 00:55:18;;;;;;;2.20;2.00;;;;;;;14.94;nan;99711.66;4992906;28;20188;-73
2023/08/08 00:57:45;;;;;;;1.50;1.40;;;;;;;14.95;nan;99710.69;4992472;28;20736;-73
2023/08/08 01:00:11;;;;;;;1.20;1.10;;;;;;;14.97;nan;99709.59;4990849;28;20703;-73
2023/08/08 01:02:37;;;;;;;2.92;1.75;;;;;;;14.96;nan;99710.59;4988186;28;20808;-73
2023/08/08 01:05:04;;;;;;;4.47;1.73;;;;;;;14.97;nan;99708.78;4992441;28;20687;-73
2023/08/08 01:07:57;;;;;;;1.58;1.40;;;;;;;14.94;nan;99709.03;4988662;28;20204;-73
2023/08/08 01:10:31;;;;;;;1.90;1.65;;;;;;;14.88;nan;99701.56;4988840;28;20846;-73
2023/08/08 01:13:02;;;;;;;2.33;1.92;;;;;;;14.83;nan;99699.31;4990711;28;20213;-73
2023/08/08 01:15:32;;;;;;;1.55;1.45;;;;;;;14.82;nan;99702.88;4991769;28;20214;-73
2023/08/08 01:17:58;;;;;;;3.53;1.40;;;;;;;14.75;nan;99691.13;4990575;28;20212;-73
2023/08/08 01:20:24;;;;;;;2.60;1.77;;;;;;;14.71;nan;99690.53;4990161;28;20356;-73
2023/08/08 01:23:15;;;;;;;3.50;1.60;;;;;;;14.72;nan;99686.94;4994616;28;20243;-73
2023/08/08 01:25:42;;;;;;;2.00;1.58;;;;;;;14.77;nan;99697.13;4994502;28;20589;-73
2023/08/08 01:28:08;;;;;;;2.45;1.45;;;;;;;14.80;nan;99691.63;4994417;28;20317;-74
2023/08/08 01:30:33;;;;;;;2.00;1.60;;;;;;;14.83;nan;99696.66;4991209;28;21339;-73
2023/08/08 01:33:00;;;;;;;2.22;1.40;;;;;;;14.87;nan;99702.53;4991603;28;20191;-73
2023/08/08 01:35:28;;;;;;;3.00;1.80;;;;;;;14.90;nan;99700.47;4994910;28;20439;-73
2023/08/08 01:38:01;;;;;;;2.15;1.65;;;;;;;14.94;nan;99693.16;4994438;28;20524;-73
2023/08/08 01:40:28;;;;;;;4.70;1.90;;;;;;;14.93;nan;99696.75;4992646;28;20206;-73
2023/08/08 01:42:55;;;;;;;1.40;1.30;;;;;;;14.92;nan;99697.72;4995664;28;20204;-73
2023/08/08 01:45:21;;;;;;;2.03;1.45;;;;;;;14.91;nan;99696.03;4993683;28;20213;-73
2023/08/08 01:47:50;;;;;;;1.53;1.37;;;;;;;14.91;nan;99685.47;4989867;28;20218;-74
2023/08/08 01:50:16;;;;;;;1.90;1.55;;;;;;;14.90;nan;99683.78;4994038;28;20806;-73
2023/08/08 01:52:41;;;;;;;4.57;1.90;;;;;;;14.87;nan;99684.03;4991261;28;20306;-73
2023/08/08 01:55:07;;;;;;;2.63;1.50;;;;;;;14.79;nan;99682.81;4993361;28;20210;-73
2023/08/08 01:57:32;;;;;;;3.80;1.70;;;;;;;14.71;nan;99679.94;4993354;28;20203;-73
2023/08/08 01:59:58;;;;;;;2.73;1.70;;;;;;;14.66;nan;99684.75;4993220;28;20516;-73
2023/08/08 02:02:24;;;;;;;1.70;1.60;;;;;;;14.59;nan;99681.78;4990230;28;20239;-73
2023/08/08 02:04:49;;;;;;;2.78;1.70;;;;;;;14.56;nan;99687.31;4991341;28;20462;-72
2023/08/08 02:07:15;;;;;;;2.60;1.53;;;;;;;14.54;nan;99685.75;4994205;28;20225;-72
2023/08/08 02:09:40;;;;;;;2.80;1.77;;;;;;;14.54;nan;99685.75;4993501;28;20333;-72
2023/08/08 02:12:07;;;;;;;2.67;1.80;;;;;;;14.53;nan;99682.25;4992145;28;20313;-72
2023/08/08 02:14:32;;;;;;;2.50;1.87;;;;;;;14.50;nan;99687.75;4992961;28;20311;-73
2023/08/08 02:16:58;;;;;;;8.00;2.10;;;;;;;14.47;nan;99689.78;4993430;28;20237;-73
2023/08/08 02:19:23;;;;;;;1.97;1.40;;;;;;;14.40;nan;99686.81;4994280;28;20217;-72
2023/08/08 02:21:49;;;;;;;1.67;1.57;;;;;;;14.33;nan;99685.59;4992007;28;20211;-72
2023/08/08 02:24:17;;;;;;;1.70;1.50;;;;;;;14.23;nan;99687.25;4993669;28;20188;-72
2023/08/08 02:26:42;;;;;;;1.97;1.47;;;;;;;14.11;nan;99694.34;4995175;28;20210;-72
2023/08/08 02:29:07;;;;;;;1.60;1.17;;;;;;;14.01;nan;99698.63;4993922;28;20222;-73
2023/08/08 02:31:33;;;;;;;2.20;2.00;;;;;;;13.94;nan;99691.19;4988052;28;20202;-72
2023/08/08 02:33:58;;;;;;;9.07;1.50;;;;;;;13.94;nan;99698.28;4989008;28;20203;-72
2023/08/08 02:36:24;;;;;;;2.80;1.40;;;;;;;13.94;nan;99701.75;4994261;28;20265;-72
2023/08/08 02:38:53;;;;;;;2.40;1.33;;;;;;;13.97;nan;99697.22;4990261;28;20257;-73
2023/08/08 02:41:18;;;;;;;1.40;1.30;;;;;;;13.99;nan;99695.25;4993656;28;20722;-72
2023/08/08 02:43:45;;;;;;;1.33;1.20;;;;;;;13.98;nan;99696.22;4976891;28;21031;-72
2023/08/08 02:46:11;;;;;;;1.55;1.17;;;;;;;13.94;nan;99691.19;4987890;28;20206;-72
2023/08/08 02:48:36;;;;;;;2.53;1.67;;;;;;;13.95;nan;99692.03;4990632;28;20215;-73
2023/08/08 02:51:02;;;;;;;1.63;1.20;;;;;;;13.97;nan;99691.94;4990350;28;20409;-72
2023/08/08 02:53:27;;;;;;;1.40;1.20;;;;;;;13.98;nan;99691.78;4990388;28;21234;-73
2023/08/08 02:55:53;;;;;;;1.73;1.40;;;;;;;13.97;nan;99681.34;4993754;28;20838;-72
2023/08/08 02:58:18;;;;;;;2.73;1.67;;;;;;;13.90;nan;99687.09;4975982;28;20310;-72
2023/08/08 03:00:45;;;;;;;2.47;1.83;;;;;;;13.83;nan;99682.41;4989116;28;20234;-73
2023/08/08 03:03:13;;;;;;;2.38;2.17;;;;;;;13.79;nan;99676.50;4989120;28;20203;-73
2023/08/08 03:05:39;;;;;;;5.10;1.80;;;;;;;13.78;nan;99677.47;4990767;28;20222;-73
2023/08/08 03:08:05;;;;;;;1.73;1.50;;;;;;;13.75;nan;99680.34;4992149;28;20571;-72
2023/08/08 03:10:33;;;;;;;2.53;1.52;;;;;;;13.77;nan;99686.38;4989278;28;20241;-72
2023/08/08 03:13:00;;;;;;;2.20;1.65;;;;;;;13.78;nan;99676.63;4988240;28;20231;-72
2023/08/08 03:15:26;;;;;;;4.70;1.52;;;;;;;13.79;nan;99683.59;4992726;28;20779;-73
2023/08/08 03:17:52;;;;;;;2.47;2.27;;;;;;;13.75;nan;99675.06;4992529;28;20195;-72
2023/08/08 03:20:20;;;;;;;1.75;1.48;;;;;;;13.65;nan;99674.91;4987559;28;20548;-72
2023/08/08 03:22:45;;;;;;;2.80;1.70;;;;;;;13.61;nan;99680.53;4993531;28;20632;-72
2023/08/08 03:25:11;;;;;;;2.33;1.30;;;;;;;13.58;nan;99678.97;4990754;28;20206;-72
2023/08/08 03:27:36;;;;;;;5.33;2.27;;;;;;;13.56;nan;99682.69;4993810;28;20210;-72
2023/08/08 03:30:02;;;;;;;3.53;1.50;;;;;;;13.54;nan;99684.59;4975379;28;20870;-72
2023/08/08 03:32:32;;;;;;;1.60;1.30;;;;;;;13.47;nan;99686.84;4992423;28;20207;-72
2023/08/08 03:34:58;;;;;;;3.97;1.83;;;;;;;13.39;nan;99690.03;4988259;28;20203;-72
2023/08/08 03:37:23;;;;;;;2.67;1.37;;;;;;;13.36;nan;99684.16;4982121;28;20209;-72
2023/08/08 03:39:48;;;;;;;2.70;2.50;;;;;;;13.36;nan;99695.53;4984009;28;20203;-72
2023/08/08 03:42:15;;;;;;;1.90;1.42;;;;;;;13.37;nan;99691.13;4983006;28;20200;-73
2023/08/08 03:44:40;;;;;;;1.93;1.80;;;;;;;13.32;nan;99696.75;4985542;28;20209;-72
2023/08/08 03:47:07;;;;;;;3.20;1.80;;;;;;;13.27;nan;99685.69;4986460;28;20227;-75
2023/08/08 03:49:32;;;;;;;2.13;1.50;;;;;;;13.27;nan;99685.69;4991252;28;20207;-72
2023/08/08 03:51:59;;;;;;;5.68;1.65;;;;;;;13.28;nan;99687.34;4989511;28;20230;-72
2023/08/08 03:54:24;;;;;;;2.20;1.60;;;;;;;13.30;nan;99693.38;4990253;28;20199;-72
2023/08/08 03:56:49;;;;;;;1.50;1.37;;;;;;;13.33;nan;99690.50;4991250;28;20203;-72
2023/08/08 03:59:15;;;;;;;2.87;1.93;;;;;;;13.32;nan;99686.19;4990115;28;20201;-72
2023/08/08 04:01:41;;;;;;;2.37;2.17;;;;;;;13.33;nan;99692.31;4989035;28;20223;-73
2023/08/08 04:04:06;;;;;;;1.60;1.40;;;;;;;13.35;nan;99696.50;4993406;28;20198;-72
2023/08/08 04:06:31;;;;;;;1.63;1.50;;;;;;;13.39;nan;99694.47;4992327;28;20683;-72
2023/08/08 04:08:57;;;;;;;1.70;1.60;;;;;;;13.39;nan;99695.31;4972966;28;20950;-72
2023/08/08 04:11:22;;;;;;;2.03;1.70;;;;;;;13.38;nan;99706.00;4991115;28;20207;-72
2023/08/08 04:13:49;;;;;;;2.78;1.70;;;;;;;13.34;nan;99700.13;4972133;28;20337;-72
2023/08/08 04:16:14;;;;;;;2.03;1.20;;;;;;;13.32;nan;99704.66;4972399;28;20331;-72
2023/08/08 04:18:40;;;;;;;2.07;1.77;;;;;;;13.30;nan;99703.09;4992958;28;20238;-72
2023/08/08 04:21:05;;;;;;;2.70;1.30;;;;;;;13.30;nan;99711.84;4990704;28;21238;-72
2023/08/08 04:23:31;;;;;;;2.67;1.80;;;;;;;13.32;nan;99701.19;4992584;28;20275;-73
2023/08/08 04:25:56;;;;;;;2.87;1.60;;;;;;;13.34;nan;99708.03;4992568;28;20325;-74
2023/08/08 04:28:22;;;;;;;3.93;1.67;;;;;;;13.34;nan;99705.41;4992138;28;20218;-72
2023/08/08 04:30:47;;;;;;;5.23;2.40;;;;;;;13.26;nan;99702.47;4993298;28;20572;-72
2023/08/08 04:33:12;;;;;;;2.33;1.80;;;;;;;13.15;nan;99702.38;4988245;28;20195;-72
2023/08/08 04:35:38;;;;;;;2.50;1.87;;;;;;;13.14;nan;99708.59;4989459;28;21377;-73
2023/08/08 04:38:03;;;;;;;1.87;1.70;;;;;;;13.17;nan;99711.84;4992882;28;20302;-72
2023/08/08 04:40:29;;;;;;;2.87;1.70;;;;;;;13.22;nan;99703.63;4993493;28;20207;-72
2023/08/08 04:42:54;;;;;;;2.10;1.50;;;;;;;13.25;nan;99704.22;4993658;28;20628;-73
2023/08/08 04:45:20;;;;;;;3.20;2.20;;;;;;;13.27;nan;99698.88;4991971;28;20618;-72
2023/08/08 04:47:46;;;;;;;2.40;2.03;;;;;;;13.28;nan;99706.69;4992080;28;20207;-72
2023/08/08 04:50:12;;;;;;;3.30;1.90;;;;;;;13.28;nan;99700.53;4994404;28;20214;-72
2023/08/08 04:52:37;;;;;;;3.10;1.50;;;;;;;13.35;nan;99711.50;4989483;28;20914;-72
2023/08/08 04:55:03;;;;;;;2.23;1.60;;;;;;;13.40;nan;99712.00;4996573;28;20203;-72
2023/08/08 04:57:28;;;;;;;1.53;1.43;;;;;;;13.44;nan;99711.66;4994870;28;20199;-71
2023/08/08 04:59:54;;;;;;;5.20;4.80;;;;;;;13.52;nan;99718.16;4997593;28;20883;-72
2023/08/08 05:02:19;;;;;;;2.30;2.10;;;;;;;13.61;nan;99722.75;4996987;28;20223;-72
2023/08/08 05:04:44;;;;;;;1.90;1.47;;;;;;;13.68;nan;99724.81;4996600;28;20203;-72
2023/08/08 05:07:10;;;;;;;2.80;2.30;;;;;;;13.75;nan;99722.59;4996806;28;20485;-72
2023/08/08 05:09:35;;;;;;;2.30;2.10;;;;;;;13.89;nan;99725.03;4996151;28;20823;-73
2023/08/08 05:12:01;;;;;;;3.50;1.70;;;;;;;14.16;nan;99719.44;4995685;28;20269;-72
2023/08/08 05:14:26;;;;;;;2.40;1.90;;;;;;;14.57;nan;99717.22;4994259;28;20215;-72
2023/08/08 05:16:52;;;;;;;2.67;1.87;;;;;;;15.04;nan;99715.22;4997514;28;20207;-73
2023/08/08 05:19:17;;;;;;;2.40;1.40;;;;;;;15.53;nan;99707.75;4996359;28;20215;-72
2023/08/08 05:21:43;;;;;;;2.87;1.90;;;;;;;16.00;nan;99702.97;4992604;28;20624;-73
2023/08/08 05:24:08;;;;;;;1.40;1.30;;;;;;;16.38;nan;99699.69;4997740;28;20404;-73
2023/08/08 05:26:33;;;;;;;2.43;1.63;;;;;;;16.79;nan;99697.91;4995814;28;21467;-73
2023/08/08 05:28:59;;;;;;;3.30;1.80;;;;;;;17.28;nan;99688.22;4995503;28;20213;-73
2023/08/08 05:31:24;;;;;;;2.03;1.30;;;;;;;17.77;nan;99680.25;4996704;28;20293;-72
2023/08/08 05:33:50;;;;;;;1.97;1.50;;;;;;;18.10;nan;99678.97;4994396;28;20237;-73
2023/08/08 05:36:15;;;;;;;2.90;1.60;;;;;;;18.45;nan;99680.13;4997033;28;20199;-73
2023/08/08 05:38:43;;;;;;;3.07;1.87;;;;;;;18.81;nan;99682.91;4996398;28;20187;-73
2023/08/08 05:41:08;;;;;;;1.57;1.47;;;;;;;19.32;nan;99682.28;4987760;28;20905;-72
2023/08/08 05:43:34;;;;;;;2.60;1.70;;;;;;;19.85;nan;99677.94;4993575;28;20935;-73
2023/08/08 05:45:59;;;;;;;2.47;1.80;;;;;;;20.37;nan;99683.25;4997557;28;20191;-72
2023/08/08 05:48:25;;;;;;;2.60;1.70;;;;;;;20.71;nan;99683.28;4994416;28;20603;-73
2023/08/08 05:50:50;;;;;;;7.93;1.97;;;;;;;20.99;nan;99681.19;4995870;28;20215;-73
2023/08/08 05:53:16;;;;;;;2.77;1.27;;;;;;;21.15;nan;99685.75;4995245;28;20771;-73
2023/08/08 05:55:42;;;;;;;1.63;1.40;;;;;;;21.10;nan;99685.41;4996084;28;20211;-73
2023/08/08 05:58:08;;;;;;;1.60;1.20;;;;;;;21.10;nan;99692.56;4996320;28;20195;-73
2023/08/08 06:00:34;;;;;;;2.57;1.40;;;;;;;21.25;nan;99690.91;4994499;28;20463;-73
2023/08/08 06:03:00;;;;;;;2.90;2.07;;;;;;;21.36;nan;99695.97;4993479;28;20460;-73
2023/08/08 06:05:26;;;;;;;2.50;1.77;;;;;;;21.34;nan;99687.28;4995280;28;20418;-72
2023/08/08 06:07:51;;;;;;;1.87;1.50;;;;;;;21.25;nan;99687.41;4993082;28;20541;-73
2023/08/08 06:10:17;;;;;;;2.90;1.33;;;;;;;21.05;nan;99684.22;4994070;28;20892;-72
2023/08/08 06:12:42;;;;;;;3.63;1.67;;;;;;;20.76;nan;99682.78;4994418;28;20768;-73
2023/08/08 06:15:08;;;;;;;2.00;1.30;;;;;;;20.64;nan;99684.09;4995185;28;20207;-72
2023/08/08 06:17:33;;;;;;;5.30;1.57;;;;;;;20.49;nan;99683.81;4996356;28;20199;-73
2023/08/08 06:19:59;;;;;;;2.27;1.43;;;;;;;20.39;nan;99675.94;4995799;28;20911;-72
2023/08/08 06:22:25;;;;;;;1.57;1.10;;;;;;;20.27;nan;99674.53;4995881;28;20238;-73
2023/08/08 06:24:50;;;;;;;2.20;1.30;;;;;;;20.34;nan;99675.56;4995168;28;20560;-73
2023/08/08 06:27:17;;;;;;;2.47;1.37;;;;;;;20.61;nan;99673.75;4985529;28;20257;-73
2023/08/08 06:29:42;;;;;;;1.23;1.10;;;;;;;20.89;nan;99683.16;4989021;28;20211;-72
2023/08/08 06:32:08;;;;;;;4.80;1.93;;;;;;;21.11;nan;99673.69;4988899;28;21296;-72
2023/08/08 06:34:33;;;;;;;1.67;1.20;;;;;;;21.32;nan;99678.59;4989267;28;20704;-73
2023/08/08 06:36:58;;;;;;;3.77;1.50;;;;;;;21.51;nan;99677.47;4987404;28;20474;-73
2023/08/08 06:39:24;;;;;;;1.73;1.33;;;;;;;21.79;nan;99674.44;4989664;28;20205;-73
2023/08/08 06:41:50;;;;;;;1.97;1.30;;;;;;;22.06;nan;99671.41;4989185;28;20208;-72
2023/08/08 06:44:19;;;;;;;1.60;1.43;;;;;;;22.34;nan;99675.56;4969413;28;20654;-73
2023/08/08 06:46:45;;;;;;;1.40;1.20;;;;;;;22.56;nan;99676.66;4989557;28;20441;-73
2023/08/08 06:49:10;;;;;;;1.83;1.73;;;;;;;22.51;nan;99669.13;4987746;28;21545;-73
2023/08/08 06:51:36;;;;;;;2.10;1.50;;;;;;;22.43;nan;99667.31;4989782;28;20276;-73
2023/08/08 06:54:01;;;;;;;2.90;1.97;;;;;;;22.62;nan;99670.59;4988575;28;20494;-72
2023/08/08 06:56:27;;;;;;;2.03;1.80;;;;;;;23.00;nan;99657.38;4988231;28;20526;-73
2023/08/08 07:01:40;;;;;;;4.20;2.00;;;;;;;23.94;nan;99658.84;3284010;26;20261;-74
2023/08/08 07:04:05;;;;;;;2.63;1.90;;;;;;;24.29;nan;99654.59;4968047;28;20436;-74
2023/08/08 07:06:31;;;;;;;4.10;2.30;;;;;;;24.65;nan;99656.53;4967101;28;20435;-74
2023/08/08 07:08:56;;;;;;;2.90;2.20;;;;;;;24.71;nan;99663.06;4968143;28;20277;-74
2023/08/08 07:11:22;;;;;;;2.50;1.50;;;;;;;24.75;nan;99672.38;4969026;28;20575;-74
2023/08/08 07:13:47;;;;;;;1.37;1.20;;;;;;;24.58;nan;99674.44;4967456;28;20207;-74
2023/08/08 07:16:12;;;;;;;3.17;1.53;;;;;;;24.45;nan;99663.53;4967332;28;20187;-74
2023/08/08 07:18:38;;;;;;;3.00;1.80;;;;;;;24.47;nan;99666.88;4967360;28;20323;-74
2023/08/08 07:21:03;;;;;;;1.57;1.33;;;;;;;24.64;nan;99662.13;4969722;28;20211;-74
2023/08/08 07:23:29;;;;;;;2.97;2.23;;;;;;;24.92;nan;99655.03;4965442;28;20236;-74
2023/08/08 07:25:54;;;;;;;1.97;1.30;;;;;;;25.31;nan;99652.97;4967257;28;20192;-74
2023/08/08 07:28:20;;;;;;;2.20;1.50;;;;;;;25.82;nan;99650.94;4968222;28;20196;-74
2023/08/08 07:30:45;;;;;;;6.03;2.97;;;;;;;26.25;nan;99647.31;4965924;28;20746;-75
2023/08/08 07:33:10;;;;;;;3.30;1.90;;;;;;;26.49;nan;99646.81;4966416;28;20227;-74
2023/08/08 07:35:36;;;;;;;3.47;1.83;;;;;;;26.66;nan;99644.66;4965580;28;20427;-74
2023/08/08 07:38:01;;;;;;;2.27;1.70;;;;;;;26.57;nan;99643.16;4965309;28;20593;-74
2023/08/08 07:40:27;;;;;;;1.87;1.40;;;;;;;26.18;nan;99647.28;4967317;28;20196;-74
2023/08/08 07:42:53;;;;;;;1.60;1.50;;;;;;;25.86;nan;99642.50;4966017;28;20726;-74
2023/08/08 07:45:18;;;;;;;4.33;2.13;;;;;;;25.90;nan;99650.00;4964978;28;20202;-74
2023/08/08 07:47:44;;;;;;;2.83;2.00;;;;;;;26.19;nan;99650.78;4969355;28;20210;-74
2023/08/08 07:50:09;;;;;;;2.93;1.67;;;;;;;26.45;nan;99644.72;4964696;28;20299;-74
2023/08/08 07:52:36;;;;;;;2.20;1.50;;;;;;;26.37;nan;99647.59;4969090;28;21102;-74
2023/08/08 07:55:03;;;;;;;2.00;1.20;;;;;;;26.38;nan;99654.63;4966015;28;20196;-74
2023/08/08 07:57:30;;;;;;;3.83;1.10;;;;;;;26.52;nan;99644.78;4967279;28;20462;-74
2023/08/08 07:59:55;;;;;;;2.73;1.40;;;;;;;26.73;nan;99643.81;4965666;28;20480;-74
2023/08/08 08:02:21;;;;;;;1.57;0.93;;;;;;;27.00;nan;99633.97;4967010;28;20525;-74
2023/08/08 08:04:46;;;;;;;2.33;1.50;;;;;;;27.12;nan;99633.16;4967473;28;20204;-73
2023/08/08 08:07:11;;;;;;;1.70;1.20;;;;;;;27.26;nan;99630.53;4965636;28;20521;-73
2023/08/08 08:09:37;;;;;;;1.50;1.40;;;;;;;27.34;nan;99628.44;4963886;28;20225;-73
2023/08/08 08:12:03;;;;;;;1.63;1.00;;;;;;;27.46;nan;99627.84;4968418;28;20208;-74
2023/08/08 08:14:28;;;;;;;3.90;1.33;;;;;;;27.55;nan;99618.50;4967245;28;20878;-73
2023/08/08 08:16:53;;;;;;;1.67;1.10;;;;;;;27.69;nan;99622.03;4966114;28;20878;-73
2023/08/08 08:19:19;;;;;;;1.77;1.00;;;;;;;27.55;nan;99613.13;4965772;28;20909;-73
2023/08/08 08:21:45;;;;;;;2.70;1.43;;;;;;;27.21;nan;99617.66;4966136;28;20311;-73
2023/08/08 08:24:10;;;;;;;1.47;1.20;;;;;;;27.17;nan;99610.16;4967586;28;21047;-73
2023/08/08 08:26:36;;;;;;;1.30;1.20;;;;;;;27.12;nan;99616.16;4966429;28;20239;-74
2023/08/08 08:29:01;;;;;;;1.20;1.10;;;;;;;27.23;nan;99604.78;4968744;28;20218;-73
2023/08/08 08:31:27;;;;;;;1.57;1.40;;;;;;;27.30;nan;99605.63;4969520;28;20219;-73
2023/08/08 08:33:55;;;;;;;2.93;1.97;;;;;;;27.30;nan;99602.09;4968654;28;20215;-74
2023/08/08 08:36:21;;;;;;;1.40;1.30;;;;;;;27.28;nan;99601.50;4968300;28;20211;-73
2023/08/08 08:38:47;;;;;;;1.30;1.20;;;;;;;27.29;nan;99601.25;4970735;28;20456;-73
2023/08/08 08:41:17;;;;;;;1.70;1.20;;;;;;;27.26;nan;99604.38;4969897;28;20469;-73
2023/08/08 08:43:42;;;;;;;1.60;1.10;;;;;;;27.20;nan;99601.69;4970256;28;20356;-73
2023/08/08 08:46:11;;;;;;;1.53;1.20;;;;;;;27.01;nan;99601.41;4970343;28;20521;-73
2023/08/08 08:48:37;;;;;;;1.27;0.93;;;;;;;26.56;nan;99603.78;4968960;28;20573;-73
2023/08/08 08:51:03;;;;;;;1.20;1.10;;;;;;;26.47;nan;99603.09;4968720;28;20469;-73
2023/08/08 08:53:29;;;;;;;1.60;1.20;;;;;;;26.33;nan;99604.06;4969060;28;20567;-73
2023/08/08 08:55:57;;;;;;;2.83;0.90;;;;;;;26.26;nan;99609.41;4968345;28;20217;-73
2023/08/08 08:58:24;;;;;;;2.20;1.40;;;;;;;26.26;nan;99604.03;4969669;28;20954;-73
2023/08/08 09:00:51;;;;;;;1.93;1.30;;;;;;;26.20;nan;99607.53;4968017;28;20559;-73
2023/08/08 09:03:16;;;;;;;1.50;0.90;;;;;;;26.18;nan;99606.06;4969359;28;20544;-73
2023/08/08 09:05:43;;;;;;;1.63;1.27;;;;;;;26.11;nan;99616.78;4968187;28;20478;-73
2023/08/08 09:08:20;;;;;;;2.00;1.10;;;;;;;26.01;nan;99603.69;4969937;28;20218;-74
2023/08/08 09:11:11;;;;;;;1.77;1.03;;;;;;;25.91;nan;99608.59;4969484;28;20509;-74
2023/08/08 09:13:40;;;;;;;2.13;1.17;;;;;;;25.83;nan;99604.19;4969799;28;20531;-73
2023/08/08 09:16:07;;;;;;;1.30;1.20;;;;;;;25.90;nan;99598.88;4971174;28;20207;-73
2023/08/08 09:18:33;;;;;;;1.73;1.00;;;;;;;26.02;nan;99597.25;4969801;28;20450;-73
2023/08/08 09:20:59;;;;;;;5.40;1.10;;;;;;;26.07;nan;99603.94;4970279;28;20559;-73
2023/08/08 09:23:25;;;;;;;3.00;1.40;;;;;;;25.96;nan;99597.25;4969632;28;20203;-73
2023/08/08 09:25:50;;;;;;;2.17;1.07;;;;;;;25.81;nan;99595.44;4968121;28;20467;-73
2023/08/08 09:28:16;;;;;;;1.40;1.30;;;;;;;25.69;nan;99593.50;4970394;28;20440;-75
2023/08/08 09:30:42;;;;;;;2.17;1.33;;;;;;;25.70;nan;99595.16;4968368;28;20322;-75
2023/08/08 09:33:08;;;;;;;1.17;1.07;;;;;;;25.87;nan;99590.34;4968997;28;20457;-75
2023/08/08 09:35:33;;;;;;;1.30;0.90;;;;;;;25.87;nan;99593.03;4969375;28;20505;-74
2023/08/08 09:37:59;;;;;;;1.63;1.10;;;;;;;25.90;nan;99584.59;4969265;28;20214;-74
2023/08/08 09:40:25;;;;;;;1.50;0.97;;;;;;;25.98;nan;99589.81;4967053;28;20195;-72
2023/08/08 09:42:53;;;;;;;1.50;1.40;;;;;;;26.06;nan;99584.25;4969753;28;20624;-73
2023/08/08 09:45:19;;;;;;;2.50;1.50;;;;;;;26.01;nan;99581.34;4966253;28;20215;-72
2023/08/08 09:47:44;;;;;;;1.47;0.97;;;;;;;26.09;nan;99588.41;4954027;28;20871;-73
2023/08/08 09:50:09;;;;;;;1.57;1.00;;;;;;;26.18;nan;99579.97;4968504;28;20699;-74
2023/08/08 09:52:38;;;;;;;1.10;1.00;;;;;;;26.18;nan;99574.56;4971447;28;20853;-73
2023/08/08 09:55:05;;;;;;;1.93;1.10;;;;;;;26.19;nan;99578.09;4965476;28;20501;-73
2023/08/08 09:57:32;;;;;;;1.23;1.10;;;;;;;26.22;nan;99577.69;4968719;28;20454;-73
2023/08/08 09:59:57;;;;;;;1.40;1.00;;;;;;;26.27;nan;99562.63;4965331;28;20788;-73
2023/08/08 10:02:22;;;;;;;1.83;1.10;;;;;;;26.39;nan;99557.47;4970621;28;20831;-73
2023/08/08 10:04:48;;;;;;;1.70;1.27;;;;;;;26.47;nan;99557.31;4970317;28;20216;-73
2023/08/08 10:07:14;;;;;;;1.37;1.20;;;;;;;26.52;nan;99561.25;4968662;28;20538;-74
2023/08/08 10:09:41;;;;;;;2.00;1.10;;;;;;;26.59;nan;99560.25;4968523;28;20864;-73
2023/08/08 10:12:07;;;;;;;1.60;1.30;;;;;;;26.74;nan;99551.19;4969929;28;20888;-74
2023/08/08 10:14:36;;;;;;;1.43;1.30;;;;;;;26.78;nan;99555.94;4970255;28;21050;-73
2023/08/08 10:17:06;;;;;;;3.03;1.30;;;;;;;26.96;nan;99543.78;4970575;28;20458;-74
2023/08/08 10:19:32;;;;;;;1.90;1.20;;;;;;;26.86;nan;99546.84;4969297;28;20654;-73
2023/08/08 10:22:04;;;;;;;1.50;1.10;;;;;;;26.63;nan;99549.94;4969934;28;20455;-74
2023/08/08 10:24:35;;;;;;;1.40;1.00;;;;;;;26.48;nan;99547.34;4969901;28;20490;-74
2023/08/08 10:27:02;;;;;;;1.67;1.30;;;;;;;26.37;nan;99548.75;4968503;28;20459;-73
2023/08/08 10:29:29;;;;;;;1.40;0.97;;;;;;;26.35;nan;99556.22;4967026;28;20821;-73
2023/08/08 10:31:59;;;;;;;2.00;1.47;;;;;;;26.24;nan;99554.09;4970214;28;20690;-73
2023/08/08 10:34:46;;;;;;;2.13;1.10;;;;;;;26.14;nan;99561.69;4968604;28;20894;-73
2023/08/08 10:37:17;;;;;;;1.50;1.40;;;;;;;26.06;nan;99560.03;4968050;28;20470;-74
2023/08/08 10:39:59;;;;;;;1.70;1.10;;;;;;;26.16;nan;99546.19;4968885;28;20466;-74
2023/08/08 10:42:28;;;;;;;1.70;1.00;;;;;;;26.25;nan;99545.00;4969666;28;21066;-73
2023/08/08 10:45:02;;;;;;;1.20;1.07;;;;;;;26.30;nan;99547.06;4970460;28;20623;-74
2023/08/08 10:47:34;;;;;;;1.90;1.17;;;;;;;26.26;nan;99542.09;4969387;28;20617;-74
2023/08/08 10:50:14;;;;;;;5.03;1.53;;;;;;;26.44;nan;99546.94;4966986;28;20519;-73
2023/08/08 10:52:48;;;;;;;1.97;1.77;;;;;;;26.61;nan;99550.13;4969476;28;20490;-73
2023/08/08 10:55:26;;;;;;;2.47;1.27;;;;;;;26.53;nan;99546.78;4970612;28;20652;-73
2023/08/08 10:58:03;;;;;;;1.87;1.20;;;;;;;26.27;nan;99551.00;4969826;28;20982;-73
2023/08/08 11:00:31;;;;;;;1.20;1.10;;;;;;;26.18;nan;99549.53;4967098;28;21147;-74
2023/08/08 11:02:57;;;;;;;2.07;1.33;;;;;;;26.26;nan;99552.03;4967832;28;20509;-74
2023/08/08 11:05:24;;;;;;;2.60;1.70;;;;;;;26.34;nan;99543.78;4966129;28;20793;-74
2023/08/08 11:07:50;;;;;;;1.33;1.10;;;;;;;26.44;nan;99535.34;4965903;28;20459;-74
2023/08/08 11:10:16;;;;;;;1.40;1.00;;;;;;;26.38;nan;99541.50;4965489;28;20498;-74
2023/08/08 11:13:01;;;;;;;1.20;1.03;;;;;;;26.08;32.77;99540.97;5092903;27;20372;-74
2023/08/08 11:15:27;;;;;;;1.50;1.40;;;;;;;26.02;33.30;99548.00;5078070;28;20445;-74
2023/08/08 11:17:56;;;;;;;2.50;1.40;;;;;;;26.10;33.24;99545.13;5072341;28;20833;-74
2023/08/08 11:20:25;;;;;;;1.67;0.80;;;;;;;26.23;32.71;99533.59;5057668;28;20442;-74
2023/08/08 11:22:54;;;;;;;2.03;1.63;;;;;;;26.37;32.63;99535.28;5055196;28;20474;-74
2023/08/08 11:25:28;;;;;;;1.00;0.90;;;;;;;26.46;32.68;99539.50;5054501;28;20896;-76
2023/08/08 11:27:54;;;;;;;1.83;1.30;;;;;;;26.41;32.57;99533.88;5054993;28;20477;-76
2023/08/08 11:30:22;;;;;;;3.57;1.37;;;;;;;26.35;32.41;99531.97;5053810;28;21449;-75
2023/08/08 11:32:48;;;;;;;1.57;1.47;;;;;;;26.26;32.94;99536.72;5053352;28;20655;-75
2023/08/08 11:35:23;;;;;;;2.03;1.10;;;;;;;26.13;32.48;99533.97;5058050;28;20436;-75
2023/08/08 11:37:51;;;;;;;1.30;1.10;;;;;;;26.01;32.71;99536.41;5052588;28;20236;-75
2023/08/08 11:40:17;;;;;;;1.80;1.17;;;;;;;25.88;33.54;99546.25;5052599;28;20892;-75
2023/08/08 11:42:44;;;;;;;4.10;2.67;;;;;;;25.67;33.66;99534.50;5051398;28;20462;-75
2023/08/08 11:45:14;;;;;;;1.90;1.13;;;;;;;25.51;34.25;99540.19;5054234;28;20541;-75
2023/08/08 11:47:53;;;;;;;2.63;1.53;;;;;;;25.37;34.51;99541.97;5057211;28;20773;-75
2023/08/08 11:50:22;;;;;;;1.20;1.10;;;;;;;25.28;34.74;99533.22;5051864;28;20462;-75